Time;durP1;ratioP1;P1;durP2;ratioP2;P2;SDS_P1;SDS_P2;PMS_P1;PMS_P2;Temp;Humidity;BMP_temperature;BMP_pressure;BME280_temperature;BME280_humidity;BME280_pressure;Samples;Min_cycle;Max_cycle;Signal;HPM_P1;HPM_P2
2023/07/25 00:01:00;;;;;;;6.30;3.92;;;;;;;15.68;100.00;99433.28;4952891;28;21444;-80
2023/07/25 00:03:27;;;;;;;8.18;4.00;;;;;;;15.67;100.00;99433.38;4980466;28;20123;-80
2023/07/25 00:05:54;;;;;;;6.85;4.25;;;;;;;15.67;100.00;99433.38;4955934;28;20072;-80
2023/07/25 00:08:20;;;;;;;6.72;4.60;;;;;;;15.65;100.00;99432.63;4965998;28;20247;-80
2023/07/25 00:10:47;;;;;;;4.97;3.85;;;;;;;15.59;100.00;99425.84;4969286;28;20051;-80
2023/07/25 00:13:14;;;;;;;6.50;4.15;;;;;;;15.54;100.00;99432.38;4938769;28;20104;-80
2023/07/25 00:15:41;;;;;;;5.10;3.63;;;;;;;15.54;100.00;99424.38;4958908;28;20487;-80
2023/07/25 00:18:10;;;;;;;6.85;4.20;;;;;;;15.56;100.00;99422.53;4990136;28;20039;-80
2023/07/25 00:20:37;;;;;;;6.80;4.18;;;;;;;15.53;100.00;99431.53;4954636;28;20088;-79
2023/07/25 00:23:04;;;;;;;6.68;4.28;;;;;;;15.39;100.00;99431.50;4939650;28;20047;-80
2023/07/25 00:25:30;;;;;;;6.03;4.70;;;;;;;15.32;100.00;99432.81;4957647;28;20084;-83
2023/07/25 00:27:57;;;;;;;7.93;5.20;;;;;;;15.41;100.00;99440.25;4983259;28;20043;-83
2023/07/25 00:30:24;;;;;;;8.57;5.00;;;;;;;15.40;100.00;99435.88;4964679;28;20052;-83
2023/07/25 00:32:51;;;;;;;6.40;4.40;;;;;;;15.28;100.00;99436.59;4938641;28;20035;-83
2023/07/25 00:35:18;;;;;;;5.80;4.38;;;;;;;15.30;100.00;99435.59;4933150;28;20133;-84
2023/07/25 00:37:44;;;;;;;6.70;4.32;;;;;;;15.21;100.00;99431.63;4980055;28;20039;-81
2023/07/25 00:40:11;;;;;;;5.10;4.35;;;;;;;15.22;100.00;99437.84;4968416;28;20043;-81
2023/07/25 00:42:38;;;;;;;5.82;3.55;;;;;;;15.25;100.00;99432.31;4946104;28;20133;-81
2023/07/25 00:45:05;;;;;;;5.18;3.88;;;;;;;15.23;100.00;99434.22;4936464;28;20100;-80
2023/07/25 00:47:32;;;;;;;5.40;3.80;;;;;;;15.18;100.00;99428.31;4964174;28;20524;-80
2023/07/25 00:49:59;;;;;;;6.65;3.83;;;;;;;15.11;100.00;99435.78;4967156;28;20054;-80
2023/07/25 00:52:26;;;;;;;5.78;3.95;;;;;;;15.13;100.00;99435.69;4930378;28;20039;-79
2023/07/25 00:54:53;;;;;;;5.80;4.18;;;;;;;15.10;100.00;99444.72;4938701;28;20735;-80
2023/07/25 00:57:20;;;;;;;6.55;3.85;;;;;;;15.04;100.00;99444.22;4948490;28;20035;-79
2023/07/25 00:59:47;;;;;;;6.38;3.53;;;;;;;15.00;100.00;99446.19;4970492;28;20039;-80
2023/07/25 01:02:14;;;;;;;6.30;4.10;;;;;;;15.02;100.00;99443.44;4996134;28;20632;-80
2023/07/25 01:04:42;;;;;;;6.57;3.47;;;;;;;14.95;100.00;99442.94;5026362;28;20043;-80
2023/07/25 01:07:11;;;;;;;4.93;3.47;;;;;;;14.95;100.00;99444.75;4970177;28;20107;-81
2023/07/25 01:09:39;;;;;;;5.45;3.30;;;;;;;14.88;100.00;99441.56;4997638;28;20066;-81
2023/07/25 01:12:07;;;;;;;5.57;3.70;;;;;;;14.90;100.00;99442.38;4977200;28;20600;-81
2023/07/25 01:14:34;;;;;;;5.53;3.67;;;;;;;14.75;100.00;99445.91;4987778;28;20404;-80
2023/07/25 01:17:06;;;;;;;6.53;3.65;;;;;;;14.77;100.00;99452.84;4951938;28;20427;-81
2023/07/25 01:19:34;;;;;;;4.53;3.63;;;;;;;14.79;100.00;99460.72;5001880;28;20104;-80
2023/07/25 01:22:01;;;;;;;5.05;3.50;;;;;;;14.74;100.00;99468.97;4968404;28;20483;-80
2023/07/25 01:24:27;;;;;;;10.23;4.40;;;;;;;14.82;100.00;99466.75;4962344;28;20399;-81
2023/07/25 01:26:55;;;;;;;6.43;4.07;;;;;;;14.82;100.00;99461.41;4948248;28;20043;-81
2023/07/25 01:29:22;;;;;;;5.80;3.28;;;;;;;14.75;100.00;99468.03;4969459;28;20038;-80
2023/07/25 01:31:48;;;;;;;9.05;3.92;;;;;;;14.80;100.00;99468.63;4967938;28;20035;-81
2023/07/25 01:34:15;;;;;;;6.88;3.67;;;;;;;14.81;100.00;99467.69;4969347;28;20046;-79
2023/07/25 01:36:42;;;;;;;6.03;4.18;;;;;;;14.75;100.00;99470.69;4949882;28;20050;-80
2023/07/25 01:39:09;;;;;;;5.47;4.00;;;;;;;14.78;100.00;99466.97;4956928;28;20492;-80
2023/07/25 01:41:35;;;;;;;5.38;3.97;;;;;;;14.85;100.00;99468.34;4935126;28;20039;-80
2023/07/25 01:44:02;;;;;;;11.13;4.68;;;;;;;14.85;100.00;99468.34;4970049;28;20575;-80
2023/07/25 01:46:29;;;;;;;7.45;4.75;;;;;;;14.87;100.00;99477.09;4959566;28;20058;-81
2023/07/25 01:48:56;;;;;;;7.00;4.68;;;;;;;14.78;100.00;99485.59;4974157;28;20053;-81
2023/07/25 01:51:22;;;;;;;7.28;4.28;;;;;;;14.82;100.00;99482.69;4975357;28;20042;-81
2023/07/25 01:53:50;;;;;;;7.38;4.80;;;;;;;14.73;100.00;99487.66;5001372;28;20040;-81
2023/07/25 01:56:17;;;;;;;6.45;4.28;;;;;;;14.86;100.00;99491.34;4946455;28;20055;-80
2023/07/25 01:58:43;;;;;;;8.15;4.80;;;;;;;14.83;100.00;99503.00;4953194;28;20047;-81
2023/07/25 02:01:10;;;;;;;7.00;4.97;;;;;;;14.72;100.00;99500.09;4977148;28;20054;-80
2023/07/25 02:03:37;;;;;;;11.02;5.05;;;;;;;14.74;100.00;99497.34;4955308;28;20043;-81
2023/07/25 02:06:04;;;;;;;8.95;5.22;;;;;;;14.77;100.00;99498.03;4995461;28;20100;-81
2023/07/25 02:08:31;;;;;;;8.77;5.25;;;;;;;14.78;100.00;99489.09;4986198;28;20057;-81
2023/07/25 02:10:57;;;;;;;8.80;6.53;;;;;;;14.85;100.00;99492.28;4965678;28;20035;-82
2023/07/25 02:13:24;;;;;;;11.75;6.28;;;;;;;14.84;100.00;99502.06;4975818;28;20046;-81
2023/07/25 02:15:51;;;;;;;8.85;6.13;;;;;;;14.78;100.00;99494.44;4938657;28;20737;-81
2023/07/25 02:18:17;;;;;;;10.93;7.13;;;;;;;14.82;100.00;99495.97;4979741;28;20091;-81
2023/07/25 02:20:44;;;;;;;9.90;7.10;;;;;;;14.86;100.00;99492.19;4946170;28;20074;-81
2023/07/25 02:23:11;;;;;;;13.00;7.10;;;;;;;14.90;100.00;99508.84;5001023;28;20626;-82
2023/07/25 02:25:38;;;;;;;11.00;7.38;;;;;;;14.86;100.00;99515.28;4930880;28;20134;-82
2023/07/25 02:28:04;;;;;;;12.93;7.75;;;;;;;14.87;100.00;99512.53;4946365;28;20138;-81
2023/07/25 02:30:31;;;;;;;11.38;7.70;;;;;;;14.91;100.00;99513.22;4949621;28;20070;-82
2023/07/25 02:32:58;;;;;;;14.07;7.70;;;;;;;14.83;100.00;99508.34;4932619;28;20034;-80
2023/07/25 02:35:24;;;;;;;12.45;7.93;;;;;;;14.83;100.00;99523.44;4959227;28;20520;-82
2023/07/25 02:37:51;;;;;;;11.82;7.85;;;;;;;14.88;100.00;99521.34;4964370;28;20125;-81
2023/07/25 02:40:18;;;;;;;10.90;7.25;;;;;;;14.82;100.00;99535.88;4957209;28;20073;-82
2023/07/25 02:42:44;;;;;;;12.20;8.32;;;;;;;14.83;100.00;99526.94;4946057;28;20036;-82
2023/07/25 02:45:11;;;;;;;11.90;8.32;;;;;;;14.76;100.00;99530.88;4964391;28;20579;-82
2023/07/25 02:47:38;;;;;;;12.10;7.90;;;;;;;14.79;100.00;99533.38;4957659;28;20492;-83
2023/07/25 02:50:05;;;;;;;10.55;8.48;;;;;;;14.79;100.00;99525.38;4952160;28;20047;-82
2023/07/25 02:52:34;;;;;;;13.30;8.35;;;;;;;14.82;100.00;99524.38;4969259;28;20538;-82
2023/07/25 02:55:01;;;;;;;10.48;7.32;;;;;;;14.83;100.00;99534.06;4944202;28;20047;-82
2023/07/25 02:57:28;;;;;;;11.45;7.90;;;;;;;14.78;100.00;99536.13;4939480;28;20043;-82
2023/07/25 02:59:55;;;;;;;12.10;7.95;;;;;;;14.82;100.00;99535.00;4951452;28;20034;-83
2023/07/25 03:02:21;;;;;;;9.88;7.10;;;;;;;14.77;100.00;99534.41;4999457;28;20046;-83
2023/07/25 03:04:50;;;;;;;11.98;8.30;;;;;;;14.83;100.00;99540.25;4968337;28;20035;-82
2023/07/25 03:07:18;;;;;;;11.65;8.40;;;;;;;14.79;100.00;99537.81;4965084;28;20058;-82
2023/07/25 03:09:45;;;;;;;13.63;8.60;;;;;;;14.79;100.00;99537.81;4952445;28;20546;-82
2023/07/25 03:12:12;;;;;;;12.80;8.48;;;;;;;14.82;100.00;99548.31;4955696;28;20126;-83
2023/07/25 03:14:39;;;;;;;14.15;8.90;;;;;;;14.77;100.00;99539.72;4950729;28;20046;-83
2023/07/25 03:17:05;;;;;;;12.05;6.85;;;;;;;14.62;100.00;99539.63;4984889;28;20714;-83
2023/07/25 03:19:32;;;;;;;13.18;7.85;;;;;;;14.63;100.00;99545.81;4969351;28;20496;-82
2023/07/25 03:21:59;;;;;;;12.55;7.45;;;;;;;14.63;100.00;99552.00;4962192;28;20492;-82
2023/07/25 03:24:26;;;;;;;8.98;6.90;;;;;;;14.61;100.00;99547.69;4950926;28;20074;-81
2023/07/25 03:26:53;;;;;;;8.88;6.38;;;;;;;14.63;100.00;99554.66;4984247;28;20496;-82
2023/07/25 03:29:20;;;;;;;12.07;7.03;;;;;;;14.64;100.00;99551.03;4971510;28;20108;-81
2023/07/25 03:31:47;;;;;;;11.65;6.80;;;;;;;14.71;100.00;99554.19;4959413;28;20454;-83
2023/07/25 03:34:14;;;;;;;8.93;6.82;;;;;;;14.62;100.00;99549.38;4960568;28;20035;-83
2023/07/25 03:36:40;;;;;;;11.05;7.05;;;;;;;14.64;100.00;99551.03;4938769;28;20039;-81
2023/07/25 03:39:07;;;;;;;10.35;6.55;;;;;;;14.66;100.00;99556.28;4959437;28;20129;-82
2023/07/25 03:41:34;;;;;;;7.68;6.50;;;;;;;14.71;100.00;99558.66;4962085;28;20066;-83
2023/07/25 03:44:01;;;;;;;9.85;6.65;;;;;;;14.74;100.00;99556.72;4973294;28;20034;-83
2023/07/25 03:46:28;;;;;;;10.27;6.00;;;;;;;14.72;100.00;99553.28;4964479;28;20048;-82
2023/07/25 03:48:55;;;;;;;9.48;6.38;;;;;;;14.69;100.00;99549.91;4957019;28;20050;-82
2023/07/25 03:51:22;;;;;;;9.07;6.15;;;;;;;14.66;100.00;99556.28;4993068;28;20379;-84
2023/07/25 03:53:49;;;;;;;7.97;5.70;;;;;;;14.69;100.00;99558.75;4962909;28;20042;-82
2023/07/25 03:56:16;;;;;;;8.20;5.30;;;;;;;14.62;100.00;99558.22;4930340;28;20058;-82
2023/07/25 03:58:43;;;;;;;9.77;6.13;;;;;;;14.63;100.00;99565.28;4961265;28;20046;-82
2023/07/25 04:01:12;;;;;;;7.50;6.03;;;;;;;14.59;100.00;99571.69;5033440;28;20100;-82
2023/07/25 04:03:39;;;;;;;9.05;6.10;;;;;;;14.70;100.00;99570.25;4942530;28;20046;-82
2023/07/25 04:06:06;;;;;;;9.48;6.03;;;;;;;14.61;100.00;99575.13;4942882;28;20553;-83
2023/07/25 04:08:32;;;;;;;8.27;5.97;;;;;;;14.66;100.00;99571.38;4972364;28;20058;-82
2023/07/25 04:10:59;;;;;;;8.60;6.18;;;;;;;14.63;100.00;99580.38;4990089;28;20038;-83
2023/07/25 04:13:26;;;;;;;8.40;5.55;;;;;;;14.70;100.00;99588.84;4974997;28;20066;-83
2023/07/25 04:15:53;;;;;;;8.60;6.25;;;;;;;14.73;100.00;99581.59;5008483;28;20046;-82
2023/07/25 04:18:20;;;;;;;9.43;5.32;;;;;;;14.77;100.00;99572.47;4945354;28;21043;-82
2023/07/25 04:20:46;;;;;;;9.07;5.65;;;;;;;14.77;100.00;99577.78;4971666;28;20046;-82
2023/07/25 04:23:14;;;;;;;8.75;6.28;;;;;;;14.77;100.00;99580.47;4953417;28;20106;-82
2023/07/25 04:25:41;;;;;;;10.13;5.82;;;;;;;14.80;100.00;99580.31;4965523;28;20508;-82
2023/07/25 04:28:08;;;;;;;8.32;5.53;;;;;;;14.76;100.00;99576.09;4953079;28;20503;-82
2023/07/25 04:30:35;;;;;;;8.13;5.68;;;;;;;14.87;100.00;99573.69;4948869;28;20128;-83
2023/07/25 04:33:02;;;;;;;9.10;5.28;;;;;;;14.93;100.00;99578.66;4963279;28;20496;-82
2023/07/25 04:35:28;;;;;;;6.78;5.03;;;;;;;14.95;100.00;99575.06;5038764;28;20043;-82
2023/07/25 04:37:55;;;;;;;7.28;5.55;;;;;;;14.99;100.00;99565.97;4938077;28;20062;-82
2023/07/25 04:40:22;;;;;;;7.28;5.00;;;;;;;14.92;100.00;99565.47;4931359;28;20042;-83
2023/07/25 04:42:49;;;;;;;6.60;5.85;;;;;;;14.93;100.00;99564.50;4954052;28;20107;-83
2023/07/25 04:45:15;;;;;;;7.15;5.03;;;;;;;14.96;100.00;99564.34;4962327;28;20043;-82
2023/07/25 04:47:42;;;;;;;8.68;5.47;;;;;;;14.99;100.00;99560.66;4949739;28;20044;-80
2023/07/25 04:50:09;;;;;;;7.93;5.60;;;;;;;14.90;100.00;99570.88;4955016;28;20046;-82
2023/07/25 04:52:36;;;;;;;5.82;5.00;;;;;;;15.02;100.00;99566.66;4950768;28;20522;-84
2023/07/25 04:55:03;;;;;;;5.10;4.57;;;;;;;15.00;100.00;99573.88;4944068;28;20043;-84
2023/07/25 04:57:30;;;;;;;7.88;5.40;;;;;;;14.95;100.00;99573.25;4935100;28;20062;-85
2023/07/25 04:59:56;;;;;;;9.23;4.90;;;;;;;15.04;100.00;99578.06;4966554;28;20078;-83
2023/07/25 05:02:23;;;;;;;6.60;4.60;;;;;;;15.07;100.00;99577.91;4976787;28;20080;-85
2023/07/25 05:04:50;;;;;;;8.48;5.55;;;;;;;15.09;100.00;99580.47;4937060;28;20037;-85
2023/07/25 05:07:17;;;;;;;6.65;4.82;;;;;;;15.14;100.00;99579.28;4941846;28;20046;-84
2023/07/25 05:09:43;;;;;;;7.05;5.20;;;;;;;15.19;100.00;99584.31;4954334;28;20049;-83
2023/07/25 05:12:11;;;;;;;9.23;4.72;;;;;;;15.16;100.00;99581.84;4969202;28;20121;-83
2023/07/25 05:14:38;;;;;;;6.93;5.20;;;;;;;15.16;100.00;99574.72;4989330;28;20113;-82
2023/07/25 05:17:04;;;;;;;8.27;6.00;;;;;;;15.23;100.00;99579.72;4935310;28;20129;-84
2023/07/25 05:19:31;;;;;;;9.80;5.35;;;;;;;15.28;100.00;99580.28;4945950;28;20142;-83
2023/07/25 05:21:58;;;;;;;8.35;5.35;;;;;;;15.13;100.00;99582.91;4968250;28;20047;-83
2023/07/25 05:24:25;;;;;;;6.95;4.90;;;;;;;15.20;100.00;99565.59;4997795;28;20462;-83
2023/07/25 05:26:52;;;;;;;6.10;4.72;;;;;;;15.28;100.00;99565.19;4956885;28;20042;-83
2023/07/25 05:29:19;;;;;;;6.32;4.70;;;;;;;15.20;100.00;99556.78;4941668;28;20047;-83
2023/07/25 05:31:45;;;;;;;7.13;4.85;;;;;;;15.28;100.00;99565.19;4981181;28;20443;-83
2023/07/25 05:34:12;;;;;;;9.10;4.88;;;;;;;15.23;100.00;99567.25;4940159;28;20130;-84
2023/07/25 05:36:39;;;;;;;7.00;4.68;;;;;;;15.36;100.00;99559.41;4981534;28;20039;-83
2023/07/25 05:39:06;;;;;;;7.93;4.50;;;;;;;15.60;100.00;99549.16;4956869;28;20054;-83
2023/07/25 05:41:33;;;;;;;4.63;4.07;;;;;;;16.04;100.00;99552.72;4943126;28;20499;-83
2023/07/25 05:44:00;;;;;;;7.10;3.72;;;;;;;16.65;100.00;99552.53;4978986;28;20043;-83
2023/07/25 05:46:26;;;;;;;8.30;4.18;;;;;;;16.97;100.00;99550.53;4936606;28;20138;-83
2023/07/25 05:48:53;;;;;;;5.60;3.33;;;;;;;17.75;100.00;99537.41;4945124;28;20080;-84
2023/07/25 05:51:20;;;;;;;4.78;3.20;;;;;;;18.26;100.00;99530.28;4973104;28;20070;-83
2023/07/25 05:53:47;;;;;;;4.18;3.00;;;;;;;18.62;100.00;99542.84;4949393;28;20038;-83
2023/07/25 05:56:13;;;;;;;5.05;3.35;;;;;;;18.60;100.00;99538.59;4944970;28;20130;-82
2023/07/25 05:58:40;;;;;;;4.78;2.83;;;;;;;18.50;100.00;99541.91;4953740;28;20047;-82
2023/07/25 06:01:07;;;;;;;5.03;3.00;;;;;;;18.18;100.00;99549.50;4939115;28;20085;-82
2023/07/25 06:03:34;;;;;;;3.75;2.85;;;;;;;17.99;100.00;99557.06;4963896;28;20145;-82
2023/07/25 06:06:01;;;;;;;4.88;3.40;;;;;;;17.68;100.00;99572.50;4951342;28;20130;-83
2023/07/25 06:08:27;;;;;;;5.30;3.05;;;;;;;17.44;100.00;99585.66;4963167;28;20047;-82
2023/07/25 06:10:54;;;;;;;6.35;3.20;;;;;;;17.17;100.00;99587.47;4965109;28;20077;-82
2023/07/25 06:13:22;;;;;;;4.78;3.20;;;;;;;16.79;100.00;99598.75;4989748;28;20065;-82
2023/07/25 06:15:49;;;;;;;4.00;3.05;;;;;;;16.65;100.00;99604.09;4999933;28;20040;-83
2023/07/25 06:18:15;;;;;;;5.03;3.13;;;;;;;16.58;100.00;99618.75;4936207;28;20442;-82
2023/07/25 06:20:46;;;;;;;4.00;3.05;;;;;;;16.38;100.00;99617.28;4980281;28;20046;-83
2023/07/25 06:23:12;;;;;;;5.80;3.90;;;;;;;16.41;100.00;99625.13;5008145;28;20047;-81
2023/07/25 06:25:39;;;;;;;4.63;3.05;;;;;;;16.47;100.00;99635.38;4955300;28;20733;-79
2023/07/25 06:28:06;;;;;;;8.23;3.83;;;;;;;16.41;100.00;99642.91;4966929;28;20133;-79
2023/07/25 06:30:33;;;;;;;7.00;3.42;;;;;;;16.40;100.00;99644.72;4944873;28;20039;-79
2023/07/25 06:32:59;;;;;;;4.85;3.03;;;;;;;16.41;100.00;99654.44;4969806;28;20043;-79
2023/07/25 06:35:26;;;;;;;5.38;3.03;;;;;;;16.50;100.00;99669.03;4961883;28;20050;-80
2023/07/25 06:37:53;;;;;;;4.63;2.60;;;;;;;16.63;100.00;99671.78;4943021;28;20054;-79
2023/07/25 06:40:20;;;;;;;3.00;2.63;;;;;;;16.74;100.00;99680.03;4960093;28;20061;-80
2023/07/25 06:42:46;;;;;;;3.15;2.85;;;;;;;16.82;100.00;99677.75;4967856;28;20133;-79
2023/07/25 06:45:13;;;;;;;4.85;2.53;;;;;;;17.05;100.00;99676.31;4975305;28;20078;-79
2023/07/25 06:47:40;;;;;;;3.83;3.20;;;;;;;17.26;100.00;99672.28;4968586;28;20038;-79
2023/07/25 06:50:07;;;;;;;6.38;3.17;;;;;;;17.65;100.00;99667.97;4955012;28;20043;-80
2023/07/25 06:52:34;;;;;;;3.78;2.67;;;;;;;18.05;100.00;99665.38;4933973;28;20110;-79
2023/07/25 06:55:00;;;;;;;4.90;2.75;;;;;;;18.25;100.00;99665.78;4953622;28;20043;-79
2023/07/25 06:57:28;;;;;;;5.63;2.45;;;;;;;18.54;97.95;99661.09;4986939;28;20054;-80
2023/07/25 06:59:55;;;;;;;3.22;2.60;;;;;;;18.79;90.74;99670.13;4933802;28;20039;-80
2023/07/25 07:02:22;;;;;;;3.95;2.70;;;;;;;19.00;90.74;99668.63;5000605;28;20036;-79
2023/07/25 07:04:49;;;;;;;4.97;3.40;;;;;;;19.23;94.12;99668.78;4959497;28;20039;-81
2023/07/25 07:07:16;;;;;;;3.65;2.53;;;;;;;19.47;89.93;99660.78;4970538;28;20746;-79
2023/07/25 07:09:42;;;;;;;5.20;2.67;;;;;;;19.82;89.03;99660.88;4987830;28;20069;-80
2023/07/25 07:12:09;;;;;;;5.07;2.72;;;;;;;19.81;81.26;99659.19;4982372;28;20042;-80
2023/07/25 07:14:36;;;;;;;5.65;2.70;;;;;;;19.72;84.50;99655.34;4966041;28;22117;-79
2023/07/25 07:17:03;;;;;;;4.53;2.60;;;;;;;19.79;85.71;99655.75;5006111;28;20044;-79
2023/07/25 07:19:29;;;;;;;3.17;2.20;;;;;;;19.67;84.65;99641.44;5001377;28;20539;-79
2023/07/25 07:21:56;;;;;;;3.65;2.58;;;;;;;19.79;79.76;99640.53;4972456;28;20050;-79
2023/07/25 07:24:23;;;;;;;4.40;2.80;;;;;;;20.16;83.14;99635.91;4994691;28;20408;-80
2023/07/25 07:26:50;;;;;;;4.00;2.38;;;;;;;20.38;75.35;99636.97;4977448;28;20572;-79
2023/07/25 07:29:17;;;;;;;4.20;2.83;;;;;;;20.32;76.32;99637.44;4970079;28;20062;-80
2023/07/25 07:31:43;;;;;;;4.60;2.90;;;;;;;20.09;78.11;99628.44;4976432;28;20042;-80
2023/07/25 07:34:14;;;;;;;6.70;2.88;;;;;;;19.91;74.24;99623.53;4979107;28;20090;-79
2023/07/25 07:36:44;;;;;;;5.40;2.30;;;;;;;19.59;75.64;99627.75;4976984;28;20058;-79
2023/07/25 07:39:11;;;;;;;4.57;3.05;;;;;;;19.52;79.01;99624.66;5007755;28;20043;-78
2023/07/25 07:41:38;;;;;;;3.28;2.50;;;;;;;19.91;82.80;99622.66;4996422;28;20054;-79
2023/07/25 07:44:05;;;;;;;3.97;2.13;;;;;;;20.07;70.96;99628.56;5012700;28;20050;-79
2023/07/25 07:46:33;;;;;;;2.55;1.88;;;;;;;20.11;77.75;99618.50;5028714;28;20045;-79
2023/07/25 07:49:00;;;;;;;4.32;2.10;;;;;;;20.59;76.27;99618.34;4982600;28;20052;-79
2023/07/25 07:51:27;;;;;;;5.13;2.10;;;;;;;20.79;72.71;99625.72;5006911;28;20108;-79
2023/07/25 07:53:53;;;;;;;3.53;2.20;;;;;;;20.89;73.82;99626.69;5019040;28;20478;-79
2023/07/25 07:56:20;;;;;;;2.83;2.00;;;;;;;20.71;70.50;99620.94;5006865;28;20048;-79
2023/07/25 07:58:47;;;;;;;3.90;2.75;;;;;;;20.44;74.09;99613.25;4974531;28;20066;-80
2023/07/25 08:01:20;;;;;;;6.22;2.50;;;;;;;20.17;72.46;99613.50;4984340;28;20034;-79
2023/07/25 08:03:47;;;;;;;8.30;2.95;;;;;;;20.16;74.80;99616.28;4997909;28;20082;-80
2023/07/25 08:06:14;;;;;;;3.25;2.20;;;;;;;20.21;72.62;99633.75;4972355;28;20114;-79
2023/07/25 08:08:41;;;;;;;3.70;1.95;;;;;;;20.16;64.74;99619.81;4974712;28;20082;-79
2023/07/25 08:11:07;;;;;;;3.15;2.00;;;;;;;20.00;66.65;99615.75;5021075;28;20119;-79
2023/07/25 08:13:34;;;;;;;3.95;2.00;;;;;;;20.12;69.42;99613.00;4958989;28;20455;-78
2023/07/25 08:16:01;;;;;;;3.67;2.20;;;;;;;20.54;65.44;99599.09;4966531;28;20073;-79
2023/07/25 08:18:28;;;;;;;3.10;2.30;;;;;;;20.69;68.23;99593.38;4997351;28;20048;-79
2023/07/25 08:20:56;;;;;;;2.67;2.25;;;;;;;20.42;68.69;99601.72;5028704;28;20050;-79
2023/07/25 08:23:24;;;;;;;3.78;2.58;;;;;;;20.22;66.09;99608.63;4967529;28;20469;-79
2023/07/25 08:25:51;;;;;;;3.22;2.15;;;;;;;20.27;69.28;99613.66;4937851;28;20057;-78
2023/07/25 08:28:17;;;;;;;4.50;2.83;;;;;;;20.64;70.50;99611.66;4956174;28;20130;-78
2023/07/25 08:30:44;;;;;;;2.67;2.10;;;;;;;20.98;65.98;99619.72;4970797;28;20474;-79
2023/07/25 08:33:19;;;;;;;4.65;2.10;;;;;;;21.01;59.92;99608.72;4992025;28;20221;-78
2023/07/25 08:35:47;;;;;;;4.07;1.92;;;;;;;21.49;66.58;99605.75;4950971;28;20106;-79
2023/07/25 08:38:13;;;;;;;5.25;2.63;;;;;;;21.53;61.89;99588.41;4987555;28;20062;-79
2023/07/25 08:40:41;;;;;;;3.50;1.77;;;;;;;21.71;61.86;99594.09;5000912;28;20066;-78
2023/07/25 08:43:09;;;;;;;3.67;2.10;;;;;;;21.83;62.09;99591.22;4972155;28;20042;-79
2023/07/25 08:45:36;;;;;;;3.50;1.98;;;;;;;21.46;63.20;99595.28;4972983;28;20574;-79
2023/07/25 08:48:04;;;;;;;4.80;2.00;;;;;;;21.33;58.71;99590.03;4960744;28;20107;-78
2023/07/25 08:50:32;;;;;;;4.03;2.28;;;;;;;21.64;64.10;99593.75;4942930;28;20074;-79
2023/07/25 08:53:01;;;;;;;2.85;2.08;;;;;;;21.58;60.55;99600.47;4973126;28;20062;-79
2023/07/25 08:55:27;;;;;;;8.52;2.72;;;;;;;21.33;63.23;99598.09;4973277;28;20641;-78
2023/07/25 08:57:54;;;;;;;4.38;2.10;;;;;;;21.60;66.74;99611.09;4951243;28;20058;-78
2023/07/25 09:00:21;;;;;;;3.28;1.88;;;;;;;21.64;62.46;99617.94;4954062;28;20131;-79
2023/07/25 09:02:48;;;;;;;3.25;2.38;;;;;;;21.08;59.41;99623.38;4974092;28;20053;-79
2023/07/25 09:05:19;;;;;;;3.65;1.67;;;;;;;21.27;59.95;99630.81;4985682;28;20181;-79
2023/07/25 09:07:46;;;;;;;3.15;1.70;;;;;;;21.65;58.69;99627.69;4970703;28;20106;-78
2023/07/25 09:10:12;;;;;;;3.72;2.00;;;;;;;21.98;59.15;99621.34;4938693;28;20047;-78
2023/07/25 09:12:39;;;;;;;3.03;1.52;;;;;;;21.41;55.20;99616.28;4983874;28;20045;-79
2023/07/25 09:15:06;;;;;;;7.30;1.88;;;;;;;21.18;55.75;99636.91;4971259;28;20047;-78
2023/07/25 09:17:34;;;;;;;2.75;1.88;;;;;;;21.19;61.48;99635.94;4963921;28;20083;-78
2023/07/25 09:20:01;;;;;;;6.35;2.15;;;;;;;21.31;60.49;99627.78;4933671;28;20546;-79
2023/07/25 09:22:32;;;;;;;3.50;2.03;;;;;;;21.51;59.78;99625.28;5039028;28;20034;-79
2023/07/25 09:24:59;;;;;;;3.13;1.90;;;;;;;21.32;58.25;99632.16;4953068;28;20492;-79
2023/07/25 09:27:26;;;;;;;2.65;1.65;;;;;;;21.07;56.88;99635.94;4973090;28;20050;-79
2023/07/25 09:29:53;;;;;;;3.15;1.73;;;;;;;20.79;55.59;99636.44;4957727;28;20042;-79
2023/07/25 09:32:24;;;;;;;3.13;1.98;;;;;;;20.97;58.46;99636.81;5000249;28;20042;-79
2023/07/25 09:34:55;;;;;;;3.03;1.83;;;;;;;21.26;60.74;99632.63;4972450;28;20040;-80
2023/07/25 09:37:22;;;;;;;2.40;1.77;;;;;;;21.49;58.18;99632.63;4990112;28;20191;-80
2023/07/25 09:39:49;;;;;;;3.17;1.80;;;;;;;21.93;55.97;99623.53;4963209;28;20095;-80
2023/07/25 09:42:22;;;;;;;1.95;1.60;;;;;;;22.07;51.11;99625.09;4968708;28;20096;-80
2023/07/25 09:44:53;;;;;;;3.33;1.67;;;;;;;22.03;50.52;99608.38;4982296;28;20035;-80
2023/07/25 09:47:21;;;;;;;2.83;1.60;;;;;;;21.86;49.64;99611.59;4992639;28;20049;-81
2023/07/25 09:49:51;;;;;;;4.88;1.65;;;;;;;21.64;52.71;99616.09;5025413;28;20112;-80
2023/07/25 09:52:17;;;;;;;6.32;1.73;;;;;;;21.60;54.54;99622.69;4981370;28;20046;-80
2023/07/25 09:54:44;;;;;;;3.25;2.13;;;;;;;21.59;55.10;99620.13;4981894;28;20130;-80
2023/07/25 09:57:11;;;;;;;3.50;2.03;;;;;;;21.42;54.31;99629.56;4966529;28;20648;-80
2023/07/25 09:59:38;;;;;;;2.42;1.90;;;;;;;21.31;55.43;99634.97;4979686;28;20110;-79
2023/07/25 10:02:05;;;;;;;3.15;2.00;;;;;;;21.11;57.13;99639.25;4994033;28;20585;-79
2023/07/25 10:04:36;;;;;;;3.75;2.13;;;;;;;21.07;57.89;99645.84;5006599;28;20187;-81
2023/07/25 10:07:02;;;;;;;2.53;2.20;;;;;;;20.91;56.19;99635.47;5006608;28;20118;-80
2023/07/25 10:09:30;;;;;;;4.30;2.42;;;;;;;20.75;57.75;99634.97;5003812;28;20095;-80
2023/07/25 10:11:57;;;;;;;2.55;1.98;;;;;;;20.63;60.42;99638.63;4948328;28;20088;-80
2023/07/25 10:14:23;;;;;;;3.95;2.10;;;;;;;20.63;60.56;99627.91;4998622;28;20044;-79
2023/07/25 10:16:50;;;;;;;4.40;2.30;;;;;;;20.96;58.70;99638.66;4967235;28;20068;-81
2023/07/25 10:19:17;;;;;;;2.40;2.05;;;;;;;21.41;57.26;99637.78;4959132;28;20050;-80
2023/07/25 10:21:46;;;;;;;3.45;2.17;;;;;;;21.84;53.97;99627.00;4956907;28;20058;-80
2023/07/25 10:24:13;;;;;;;4.85;2.13;;;;;;;21.83;56.35;99626.16;5004147;28;20053;-79
2023/07/25 10:26:53;;;;;;;4.15;2.40;;;;;;;21.66;54.71;99621.34;5000245;28;20138;-80
2023/07/25 10:29:39;;;;;;;4.78;1.98;;;;;;;21.46;54.58;99633.75;4981685;28;20047;-80
2023/07/25 10:32:06;;;;;;;2.92;1.88;;;;;;;21.33;54.20;99641.94;5035100;28;20039;-80
2023/07/25 10:34:50;;;;;;;2.28;1.80;;;;;;;21.24;50.86;99639.09;4943035;28;20051;-80
2023/07/25 10:37:30;;;;;;;2.88;1.58;;;;;;;21.77;51.26;99637.41;4957486;28;20061;-80
2023/07/25 10:40:05;;;;;;;3.63;1.92;;;;;;;22.25;51.36;99625.38;4963493;28;20062;-80
2023/07/25 10:42:47;;;;;;;3.65;1.95;;;;;;;22.52;48.66;99639.16;4957767;28;20035;-81
2023/07/25 10:45:29;;;;;;;2.33;1.63;;;;;;;22.40;48.07;99643.78;5003891;28;20046;-80
2023/07/25 10:47:58;;;;;;;2.38;1.55;;;;;;;21.95;45.96;99642.28;4974355;28;20039;-80
2023/07/25 10:50:45;;;;;;;2.50;1.92;;;;;;;21.82;49.61;99642.44;4963818;28;20484;-79
2023/07/25 10:53:15;;;;;;;4.30;3.00;;;;;;;21.77;49.24;99631.19;4969237;28;20043;-80
2023/07/25 10:56:02;;;;;;;4.95;2.22;;;;;;;21.57;49.30;99639.06;4989086;28;20073;-80
2023/07/25 10:58:58;;;;;;;3.55;2.20;;;;;;;21.43;47.95;99643.88;4972940;28;20055;-80
2023/07/25 11:01:33;;;;;;;2.25;1.70;;;;;;;21.33;48.75;99641.94;4962871;28;20118;-81
2023/07/25 11:04:19;;;;;;;3.33;1.70;;;;;;;20.95;45.76;99639.63;5035821;28;20047;-80
2023/07/25 11:06:50;;;;;;;7.10;4.03;;;;;;;21.04;47.92;99640.72;4976209;28;20133;-81
2023/07/25 11:09:17;;;;;;;3.72;1.67;;;;;;;20.74;47.64;99644.00;4962022;28;20047;-80
2023/07/25 11:11:46;;;;;;;3.05;1.60;;;;;;;20.86;47.90;99624.25;5001102;28;20527;-80
2023/07/25 11:14:17;;;;;;;2.63;1.52;;;;;;;20.83;51.26;99631.69;4965332;28;20462;-80
2023/07/25 11:16:46;;;;;;;4.35;2.00;;;;;;;20.77;51.70;99627.66;5005325;28;20041;-80
2023/07/25 11:19:14;;;;;;;2.83;1.67;;;;;;;20.76;51.62;99620.56;4996813;28;20038;-81
2023/07/25 11:21:43;;;;;;;3.67;1.77;;;;;;;20.80;52.36;99614.84;4991555;28;20050;-80
2023/07/25 11:24:11;;;;;;;2.58;1.60;;;;;;;21.26;50.28;99619.19;4986380;28;20035;-80
2023/07/25 11:26:38;;;;;;;4.63;1.85;;;;;;;21.70;45.97;99608.50;4967646;28;20055;-80
2023/07/25 11:29:11;;;;;;;5.38;2.13;;;;;;;22.04;43.72;99603.84;4944590;28;20043;-81